Terminal Aerodrome Forecast
Issued by NWS

Home | Current Version | Previous Version | Text Only | Print | Product List | Glossary On
Versions: 1 2 3 4 5 6 7 8 9 10 11 12 13 14 15 16 17
000
FTAK31 PAFA 251534 AAA
TAFAOT
TAF AMD
PAOT 251534Z 2516/2612 14020KT P6SM VCSH FEW024 BKN060 OVC080
      TEMPO 2516/2520 BKN024 OVC050
     FM252000 12018G24KT P6SM -SHRA SCT024 BKN035 OVC050
     FM260800 13014KT P6SM VCSH BKN024 OVC035=

USA.gov is the U.S. government's official web portal to all federal, state and local government web resources and services.